Airfield :
LOGIN :

Register | Disclaimer

   EN    FR    IT 

 










Legend :    VFR   Marginal VFR   IFR   Intensive IFR   Very Intensive IFR
Visi :
Ceiling :
>= 8 km
>= 3000ft
5 to 8 km
1000 to 3000 ft
1500m to 5 km
500 to 1000 ft
800 to 1500m
200 to 500 ft
< 800m
< 200 ft
Symbols :   Thunderstorms  Fog  Heavy snow  Heavy precipitations  Wind > 20 kt
SIGMETs :     Misc.  Thunderstorms  Icing  Turbulence  Mountain Waves  Volcanic Ashes







- Airport Elevation : 308 ft
- IATA code : POZ


EPPO - Poznan-Lawica

CURRENT METAR :
  • 221230Z 30011KT 9999 BKN014 18/15 Q1008 R10/290095

EXPIRED METARs :
  • 221200Z 33010KT 9999 BKN014 18/15 Q1008 R10/290095
  • 221130Z 31010KT 9999 BKN011 18/15 Q1007 R10/290095
  • 221100Z 31010KT 9999 BKN008 17/15 Q1008 R10/290095
  • 221030Z 32011KT 9999 BKN006 17/14 Q1007 R10/290095
  • 221000Z 33009KT 9999 BKN005 16/14 Q1007 R10/290095
  • 220930Z 32011KT 8000 BKN003 16/15 Q1007 R10/290095

TAF TAF EPPO
Valid from the 22 at 12:00 until the 23 at 12:00 UTC


221130Z 2212/2312 32012KT 9999 BKN008
BECMG 2212/2214 BKN017
TEMPO 2212/2312 31015G25KT
PROB40
TEMPO 2212/2218 VRB17G35KT 2000 TSRA BKN008 BKN017CB
BECMG 2218/2220 OVC005
TEMPO 2220/2306 OVC003
BECMG 2307/2310 BKN010
BECMG 2310/2312 BKN017
No reported NOTAMs for that airfield.



MET'MAP, your aeronautical weather chart ! - Copyright ORBIFLY December 2007 - Disclaimer

ORBIFLY MET'MAP TEAM :

Programming & Development : Alexandra Zaïnal
Concept & Development : Baudouin d'Aumeries
Co-Development & Prog : Marc-Olivier Méhu
Technical & hardware support : Manuel Goepfert

Contact : metmap@orbifly.com




SOURCES & CREDITS :

   NOAA